Time;durP1;ratioP1;P1;durP2;ratioP2;P2;SDS_P1;SDS_P2;PMS_P1;PMS_P2;Temp;Humidity;BMP_temperature;BMP_pressure;BME280_temperature;BME280_humidity;BME280_pressure;Samples;Min_cycle;Max_cycle;Signal;HPM_P1;HPM_P2
2023/11/19 00:00:50;;;;;;;0.80;0.80;;;;;;;;;;5041107;28;20209;-83
2023/11/19 00:03:17;;;;;;;1.73;0.77;;;;;;;;;;5046992;28;20211;-84
2023/11/19 00:05:44;;;;;;;0.90;0.90;;;;;;;;;;5041056;28;20300;-82
2023/11/19 00:08:11;;;;;;;0.70;0.70;;;;;;;;;;5037655;28;20633;-83
2023/11/19 00:10:40;;;;;;;0.73;0.73;;;;;;;;;;5042087;28;20683;-85
2023/11/19 00:13:07;;;;;;;1.50;0.93;;;;;;;;;;5038592;28;20205;-85
2023/11/19 00:15:34;;;;;;;0.90;0.90;;;;;;;;;;5054266;28;20206;-83
2023/11/19 00:18:04;;;;;;;0.60;0.60;;;;;;;;;;5053749;28;20640;-84
2023/11/19 00:20:31;;;;;;;0.60;0.60;;;;;;;;;;5043202;28;20215;-83
2023/11/19 00:22:58;;;;;;;0.80;0.80;;;;;;;;;;5034264;28;20216;-84
2023/11/19 00:25:25;;;;;;;0.70;0.70;;;;;;;;;;5046378;28;20653;-83
2023/11/19 00:27:53;;;;;;;0.70;0.70;;;;;;;;;;5034771;28;20211;-83
2023/11/19 00:30:20;;;;;;;0.70;0.70;;;;;;;;;;5034253;28;20234;-84
2023/11/19 00:32:47;;;;;;;0.60;0.60;;;;;;;;;;5039664;28;20598;-83
2023/11/19 00:35:15;;;;;;;0.60;0.60;;;;;;;;;;5041470;28;20234;-84
2023/11/19 00:37:42;;;;;;;0.60;0.60;;;;;;;;;;5040076;28;20702;-83
2023/11/19 00:40:10;;;;;;;0.70;0.70;;;;;;;;;;5054498;28;20604;-83
2023/11/19 00:42:37;;;;;;;0.80;0.80;;;;;;;;;;5054335;28;20201;-83
2023/11/19 00:45:08;;;;;;;0.73;0.73;;;;;;;;;;5040241;28;20280;-83
2023/11/19 00:47:35;;;;;;;0.67;0.67;;;;;;;;;;5021128;28;20203;-83
2023/11/19 00:50:02;;;;;;;0.70;0.70;;;;;;;;;;5047085;28;20703;-83
2023/11/19 00:52:29;;;;;;;0.70;0.70;;;;;;;;;;5040971;28;20205;-83
2023/11/19 00:54:56;;;;;;;0.60;0.60;;;;;;;;;;5053157;28;20194;-82
2023/11/19 00:57:23;;;;;;;2.17;0.87;;;;;;;;;;5053708;28;20205;-83
2023/11/19 00:59:50;;;;;;;0.70;0.70;;;;;;;;;;5053459;28;20202;-84
2023/11/19 01:02:18;;;;;;;1.13;0.90;;;;;;;;;;5053940;28;20292;-83
2023/11/19 01:04:45;;;;;;;0.83;0.83;;;;;;;;;;5050808;28;20233;-83
2023/11/19 01:07:12;;;;;;;0.77;0.63;;;;;;;;;;5042227;28;20335;-82
2023/11/19 01:09:40;;;;;;;0.70;0.70;;;;;;;;;;5040366;28;20244;-82
2023/11/19 01:12:08;;;;;;;0.60;0.60;;;;;;;;;;5043547;28;20295;-83
2023/11/19 01:14:36;;;;;;;0.73;0.73;;;;;;;;;;5046284;28;20199;-82
2023/11/19 01:17:04;;;;;;;0.70;0.70;;;;;;;;;;5033382;28;20206;-84
2023/11/19 01:19:32;;;;;;;1.93;0.70;;;;;;;;;;5050744;28;20214;-83
2023/11/19 01:21:59;;;;;;;0.70;0.70;;;;;;;;;;5041528;28;20203;-84
2023/11/19 01:24:28;;;;;;;0.73;0.73;;;;;;;;;;5045970;28;20199;-82
2023/11/19 01:26:55;;;;;;;0.60;0.60;;;;;;;;;;5044863;28;20198;-83
2023/11/19 01:29:22;;;;;;;0.90;0.90;;;;;;;;;;5034279;28;20203;-81
2023/11/19 01:31:51;;;;;;;1.07;1.00;;;;;;;;;;5044941;28;20237;-77
2023/11/19 01:34:18;;;;;;;1.00;1.00;;;;;;;;;;5052338;28;20248;-81
2023/11/19 01:36:48;;;;;;;0.87;0.87;;;;;;;;;;5041966;28;20242;-83
2023/11/19 01:39:17;;;;;;;0.70;0.70;;;;;;;;;;5051490;28;20216;-88
2023/11/19 01:41:44;;;;;;;0.70;0.70;;;;;;;;;;5048210;28;20217;-89
2023/11/19 01:44:12;;;;;;;0.80;0.80;;;;;;;;;;5034044;28;20214;-90
2023/11/19 01:46:40;;;;;;;1.10;0.80;;;;;;;;;;5033265;28;20258;-91
2023/11/19 01:49:07;;;;;;;0.53;0.53;;;;;;;;;;5020077;28;20217;-92
2023/11/19 01:51:35;;;;;;;0.83;0.83;;;;;;;;;;5029720;28;20210;-92
2023/11/19 01:54:04;;;;;;;1.00;1.00;;;;;;;;;;5021191;28;20210;-91
2023/11/19 01:56:31;;;;;;;2.10;1.63;;;;;;;;;;5045723;28;20301;-89
2023/11/19 01:58:58;;;;;;;1.70;1.40;;;;;;;;;;5041411;28;20244;-91
2023/11/19 02:01:25;;;;;;;1.60;1.50;;;;;;;;;;5052150;28;20206;-91
2023/11/19 02:03:53;;;;;;;1.43;1.33;;;;;;;;;;5053335;28;20584;-91
2023/11/19 02:06:20;;;;;;;4.23;2.40;;;;;;;;;;5039695;28;20226;-91
2023/11/19 02:08:47;;;;;;;4.70;2.03;;;;;;;;;;5043953;28;20273;-90
2023/11/19 02:11:16;;;;;;;4.63;2.97;;;;;;;;;;5048209;28;20225;-92
2023/11/19 02:13:44;;;;;;;2.27;1.43;;;;;;;;;;5044355;28;20221;-90
2023/11/19 02:16:11;;;;;;;2.20;1.90;;;;;;;;;;5035419;28;20210;-91
2023/11/19 02:18:39;;;;;;;2.73;2.07;;;;;;;;;;5053600;28;20209;-91
2023/11/19 02:21:07;;;;;;;1.70;1.60;;;;;;;;;;5037424;28;20755;-89
2023/11/19 02:23:34;;;;;;;4.00;2.93;;;;;;;;;;5012018;28;20211;-87
2023/11/19 02:26:16;;;;;;;1.80;1.70;;;;;;;;;;5041916;28;20222;-93
2023/11/19 02:28:44;;;;;;;4.33;2.67;;;;;;;;;;5032902;28;20210;-91
2023/11/19 02:31:12;;;;;;;6.60;4.13;;;;;;;;;;5052091;28;20198;-90
2023/11/19 02:33:39;;;;;;;5.13;3.23;;;;;;;;;;5051486;28;20260;-89
2023/11/19 02:36:08;;;;;;;1.10;1.10;;;;;;;;;;5039296;28;20237;-87
2023/11/19 02:38:35;;;;;;;1.97;1.50;;;;;;;;;;5035299;28;20210;-89
2023/11/19 02:41:05;;;;;;;1.40;1.30;;;;;;;;;;5031646;28;20725;-90
2023/11/19 02:43:33;;;;;;;1.13;1.13;;;;;;;;;;5029793;28;20241;-92
2023/11/19 02:46:03;;;;;;;1.10;1.10;;;;;;;;;;5051837;28;20233;-91
2023/11/19 02:48:30;;;;;;;1.00;1.00;;;;;;;;;;5039009;28;20220;-89
2023/11/19 02:50:59;;;;;;;0.90;0.90;;;;;;;;;;5043897;28;20214;-91
2023/11/19 02:53:28;;;;;;;1.40;1.30;;;;;;;;;;5044287;28;20293;-89
2023/11/19 02:56:01;;;;;;;1.80;1.70;;;;;;;;;;5031927;28;20211;-91
2023/11/19 02:58:28;;;;;;;1.00;1.00;;;;;;;;;;5046253;28;20271;-88
2023/11/19 03:00:59;;;;;;;1.40;1.30;;;;;;;;;;5041964;28;20296;-89
2023/11/19 03:03:30;;;;;;;1.27;1.27;;;;;;;;;;5039328;28;20236;-88
2023/11/19 03:05:58;;;;;;;1.00;1.00;;;;;;;;;;5052487;28;20230;-89
2023/11/19 03:08:24;;;;;;;1.17;1.10;;;;;;;;;;5039123;28;20197;-89
2023/11/19 03:10:51;;;;;;;1.23;1.17;;;;;;;;;;5052587;28;20205;-89
2023/11/19 03:13:18;;;;;;;1.27;1.20;;;;;;;;;;5046760;28;20207;-89
2023/11/19 03:15:45;;;;;;;1.00;1.00;;;;;;;;;;5032291;28;20218;-88
2023/11/19 03:18:12;;;;;;;1.30;1.20;;;;;;;;;;5031953;28;20202;-87
2023/11/19 03:20:40;;;;;;;1.10;1.10;;;;;;;;;;5031751;28;20709;-88
2023/11/19 03:23:07;;;;;;;1.33;1.23;;;;;;;;;;5038630;28;20209;-87
2023/11/19 03:25:35;;;;;;;0.90;0.90;;;;;;;;;;5051816;28;20225;-86
2023/11/19 03:28:03;;;;;;;2.53;1.40;;;;;;;;;;5026034;28;20287;-88
2023/11/19 03:30:30;;;;;;;1.40;1.30;;;;;;;;;;5038504;28;20214;-87
2023/11/19 03:32:57;;;;;;;1.13;1.13;;;;;;;;;;5051760;28;20217;-88
2023/11/19 03:35:25;;;;;;;1.23;1.20;;;;;;;;;;5051624;28;20234;-86
2023/11/19 03:37:53;;;;;;;1.97;1.33;;;;;;;;;;5044119;28;20213;-86
2023/11/19 03:40:20;;;;;;;1.30;1.20;;;;;;;;;;5032882;28;20206;-89
2023/11/19 03:42:47;;;;;;;1.37;1.27;;;;;;;;;;5052365;28;20213;-88
2023/11/19 03:45:14;;;;;;;1.40;1.30;;;;;;;;;;5053112;28;20271;-89
2023/11/19 03:47:41;;;;;;;1.97;1.60;;;;;;;;;;5055257;28;20255;-82
2023/11/19 03:50:09;;;;;;;2.03;1.30;;;;;;;;;;5041471;28;20206;-85
2023/11/19 03:52:35;;;;;;;1.10;1.10;;;;;;;;;;5054369;28;20210;-84
2023/11/19 03:55:04;;;;;;;1.53;1.43;;;;;;;;;;5041716;28;20212;-85
2023/11/19 03:57:31;;;;;;;1.47;1.37;;;;;;;;;;5054916;28;20606;-84
2023/11/19 03:59:59;;;;;;;1.90;1.70;;;;;;;;;;5041026;28;20719;-84
2023/11/19 04:02:27;;;;;;;1.33;1.23;;;;;;;;;;5054612;28;20214;-84
2023/11/19 04:04:55;;;;;;;1.30;1.23;;;;;;;;;;5054328;28;20612;-85
2023/11/19 04:07:22;;;;;;;1.33;1.23;;;;;;;;;;5054765;28;20261;-87
2023/11/19 04:09:49;;;;;;;1.83;1.33;;;;;;;;;;5041280;28;20216;-87
2023/11/19 04:12:17;;;;;;;1.27;1.17;;;;;;;;;;5055132;28;20198;-86
2023/11/19 04:14:44;;;;;;;1.50;1.40;;;;;;;;;;5041974;28;20202;-78
2023/11/19 04:17:11;;;;;;;1.40;1.30;;;;;;;;;;5054386;28;20209;-82
2023/11/19 04:19:41;;;;;;;1.83;1.50;;;;;;;;;;5053776;28;20229;-83
2023/11/19 04:22:08;;;;;;;1.60;1.50;;;;;;;;;;5054131;28;20672;-84
2023/11/19 04:24:35;;;;;;;3.93;2.00;;;;;;;;;;5034691;28;20310;-84
2023/11/19 04:27:03;;;;;;;1.70;1.60;;;;;;;;;;5046683;28;20235;-84
2023/11/19 04:29:31;;;;;;;1.50;1.40;;;;;;;;;;5047563;28;20648;-83
2023/11/19 04:31:58;;;;;;;1.57;1.47;;;;;;;;;;5052046;28;20221;-84
2023/11/19 04:34:25;;;;;;;1.27;1.20;;;;;;;;;;5041788;28;20307;-83
2023/11/19 04:36:52;;;;;;;1.83;1.70;;;;;;;;;;5040550;28;20257;-84
2023/11/19 04:39:19;;;;;;;2.00;1.90;;;;;;;;;;5040058;28;20460;-84
2023/11/19 04:41:51;;;;;;;1.90;1.70;;;;;;;;;;5044715;28;20249;-84
2023/11/19 04:44:18;;;;;;;1.40;1.30;;;;;;;;;;5042021;28;20289;-81
2023/11/19 04:46:46;;;;;;;1.37;1.30;;;;;;;;;;5044657;28;20240;-83
2023/11/19 04:49:14;;;;;;;2.27;2.07;;;;;;;;;;5042096;28;20214;-81
2023/11/19 04:51:41;;;;;;;1.57;1.47;;;;;;;;;;5048649;28;20205;-82
2023/11/19 04:54:09;;;;;;;1.83;1.60;;;;;;;;;;5051190;28;20233;-81
2023/11/19 04:56:38;;;;;;;1.47;1.27;;;;;;;;;;5049345;28;21123;-80
2023/11/19 04:59:08;;;;;;;1.60;1.50;;;;;;;;;;5052158;28;20595;-80
2023/11/19 05:01:35;;;;;;;2.13;1.93;;;;;;;;;;5053152;28;20214;-81
2023/11/19 05:04:04;;;;;;;1.33;1.23;;;;;;;;;;5053599;28;20205;-81
2023/11/19 05:06:31;;;;;;;1.70;1.60;;;;;;;;;;5053344;28;20226;-81
2023/11/19 05:09:00;;;;;;;1.60;1.50;;;;;;;;;;5047665;28;20668;-81
2023/11/19 05:11:28;;;;;;;2.57;2.13;;;;;;;;;;5053191;28;20210;-82
2023/11/19 05:13:54;;;;;;;1.50;1.40;;;;;;;;;;5046968;28;20255;-81
2023/11/19 05:16:21;;;;;;;1.93;1.73;;;;;;;;;;5046147;28;20280;-80
2023/11/19 05:18:48;;;;;;;1.50;1.40;;;;;;;;;;5039709;28;20224;-81
2023/11/19 05:21:17;;;;;;;1.50;1.40;;;;;;;;;;5052669;28;20202;-81
2023/11/19 05:23:44;;;;;;;1.47;1.20;;;;;;;;;;5052854;28;20280;-81
2023/11/19 05:26:18;;;;;;;1.80;1.70;;;;;;;;;;5052458;28;20236;-83
2023/11/19 05:28:46;;;;;;;1.60;1.50;;;;;;;;;;5052955;28;20202;-81
2023/11/19 05:31:13;;;;;;;1.67;1.57;;;;;;;;;;5052607;28;20201;-81
2023/11/19 05:33:39;;;;;;;1.80;1.70;;;;;;;;;;5052329;28;20601;-81
2023/11/19 05:36:08;;;;;;;1.70;1.60;;;;;;;;;;5052375;28;20234;-80
2023/11/19 05:38:39;;;;;;;2.83;1.50;;;;;;;;;;5052561;28;20741;-82
2023/11/19 05:41:06;;;;;;;1.80;1.70;;;;;;;;;;5051468;28;20206;-83
2023/11/19 05:43:33;;;;;;;1.63;1.50;;;;;;;;;;5039518;28;20594;-82
2023/11/19 05:46:01;;;;;;;2.23;2.03;;;;;;;;;;5052223;28;20229;-81
2023/11/19 05:48:28;;;;;;;3.57;3.27;;;;;;;;;;5051490;28;20596;-82
2023/11/19 05:50:55;;;;;;;2.83;1.90;;;;;;;;;;5032578;28;20221;-81
2023/11/19 05:53:22;;;;;;;1.80;1.70;;;;;;;;;;5047064;28;20219;-82
2023/11/19 05:55:55;;;;;;;2.00;1.67;;;;;;;;;;5052067;28;20212;-81
2023/11/19 05:58:24;;;;;;;4.73;3.43;;;;;;;;;;5048290;28;20209;-80
2023/11/19 06:00:51;;;;;;;2.70;2.50;;;;;;;;;;5049620;28;20214;-81
2023/11/19 06:03:18;;;;;;;1.50;1.40;;;;;;;;;;5051604;28;20202;-82
2023/11/19 06:05:45;;;;;;;1.67;1.57;;;;;;;;;;5020871;28;20304;-81
2023/11/19 06:08:14;;;;;;;2.30;2.10;;;;;;;;;;5050943;28;20216;-81
2023/11/19 06:10:41;;;;;;;2.47;2.27;;;;;;;;;;5033873;28;20205;-80
2023/11/19 06:13:11;;;;;;;5.37;2.27;;;;;;;;;;5039484;28;20673;-80
2023/11/19 06:15:41;;;;;;;1.70;1.60;;;;;;;;;;5050859;28;20649;-80
2023/11/19 06:18:08;;;;;;;2.57;1.90;;;;;;;;;;5051249;28;20209;-82
2023/11/19 06:20:35;;;;;;;2.27;2.07;;;;;;;;;;5051543;28;20217;-81
2023/11/19 06:23:02;;;;;;;2.00;1.83;;;;;;;;;;5051394;28;20198;-81
2023/11/19 06:25:29;;;;;;;3.93;2.70;;;;;;;;;;5049919;28;20198;-80
2023/11/19 06:27:57;;;;;;;4.17;2.77;;;;;;;;;;5037632;28;20221;-81
2023/11/19 06:30:25;;;;;;;3.20;2.30;;;;;;;;;;5051564;28;20198;-80
2023/11/19 06:32:52;;;;;;;3.53;2.47;;;;;;;;;;5045519;28;20203;-81
2023/11/19 06:35:19;;;;;;;5.60;3.70;;;;;;;;;;5044727;28;20264;-83
2023/11/19 06:37:46;;;;;;;11.73;7.03;;;;;;;;;;5025702;28;20201;-80
2023/11/19 06:40:21;;;;;;;3.33;2.60;;;;;;;;;;5052037;28;20274;-81
2023/11/19 06:42:47;;;;;;;4.50;2.00;;;;;;;;;;5051571;28;20203;-81
2023/11/19 06:45:14;;;;;;;3.07;2.47;;;;;;;;;;5051544;28;20217;-81
2023/11/19 06:47:43;;;;;;;1.60;1.50;;;;;;;;;;5051154;28;20722;-80
2023/11/19 06:50:12;;;;;;;2.10;2.00;;;;;;;;;;5037981;28;20202;-80
2023/11/19 06:52:39;;;;;;;1.90;1.80;;;;;;;;;;5051771;28;20218;-80
2023/11/19 06:55:08;;;;;;;1.90;1.80;;;;;;;;;;5037649;28;20660;-80
2023/11/19 06:57:34;;;;;;;1.97;1.87;;;;;;;;;;5050724;28;21066;-80
2023/11/19 07:00:01;;;;;;;1.97;1.83;;;;;;;;;;5050813;28;20205;-80
2023/11/19 07:02:29;;;;;;;2.10;1.90;;;;;;;;;;5051091;28;20221;-80
2023/11/19 07:04:57;;;;;;;1.67;1.60;;;;;;;;;;5050640;28;20221;-80
2023/11/19 07:07:24;;;;;;;3.10;2.27;;;;;;;;;;5050989;28;20232;-81
2023/11/19 07:09:51;;;;;;;2.27;2.00;;;;;;;;;;5049553;28;20593;-80
2023/11/19 07:12:18;;;;;;;1.83;1.73;;;;;;;;;;5039606;28;20647;-84
2023/11/19 07:14:45;;;;;;;1.70;1.60;;;;;;;;;;5050050;28;20208;-81
2023/11/19 07:17:13;;;;;;;1.50;1.43;;;;;;;;;;5051127;28;20644;-80
2023/11/19 07:19:40;;;;;;;2.03;1.90;;;;;;;;;;5044260;28;20647;-81
2023/11/19 07:22:08;;;;;;;2.00;1.90;;;;;;;;;;5043971;28;20284;-80
2023/11/19 07:24:35;;;;;;;1.90;1.80;;;;;;;;;;5050614;28;20588;-80
2023/11/19 07:27:03;;;;;;;2.43;2.23;;;;;;;;;;5051229;28;20602;-80
2023/11/19 07:29:32;;;;;;;1.67;1.57;;;;;;;;;;5024514;28;20655;-80
2023/11/19 07:32:01;;;;;;;2.30;2.10;;;;;;;;;;5050654;28;20237;-81
2023/11/19 07:34:29;;;;;;;4.70;3.43;;;;;;;;;;5050806;28;20592;-80
2023/11/19 07:36:59;;;;;;;2.60;2.40;;;;;;;;;;5050817;28;20265;-80
2023/11/19 07:39:27;;;;;;;2.53;2.33;;;;;;;;;;5043932;28;20638;-80
2023/11/19 07:41:54;;;;;;;2.23;2.07;;;;;;;;;;5042625;28;20213;-80
2023/11/19 07:44:22;;;;;;;2.30;2.10;;;;;;;;;;5045330;28;20241;-81
2023/11/19 07:46:48;;;;;;;3.63;2.90;;;;;;;;;;5043339;28;20225;-81
2023/11/19 07:49:15;;;;;;;2.53;2.33;;;;;;;;;;5031258;28;20210;-81
2023/11/19 07:51:42;;;;;;;1.60;1.50;;;;;;;;;;5043426;28;20217;-80
2023/11/19 07:54:09;;;;;;;1.77;1.67;;;;;;;;;;5044398;28;20222;-80
2023/11/19 07:56:40;;;;;;;11.23;6.67;;;;;;;;;;5043562;28;20208;-80
2023/11/19 07:59:07;;;;;;;18.27;8.00;;;;;;;;;;5025415;28;20213;-79
2023/11/19 08:01:34;;;;;;;4.70;3.27;;;;;;;;;;5050247;28;20206;-80
2023/11/19 08:04:01;;;;;;;2.10;1.80;;;;;;;;;;5042962;28;20206;-81
2023/11/19 08:06:28;;;;;;;2.63;2.10;;;;;;;;;;5039736;28;20685;-77
2023/11/19 08:08:55;;;;;;;2.37;2.17;;;;;;;;;;5049060;28;20201;-77
2023/11/19 08:11:22;;;;;;;1.60;1.50;;;;;;;;;;5037682;28;20213;-77
2023/11/19 08:13:52;;;;;;;1.80;1.70;;;;;;;;;;5032284;28;20588;-81
2023/11/19 08:16:19;;;;;;;2.03;1.87;;;;;;;;;;5032430;28;20221;-78
2023/11/19 08:18:46;;;;;;;2.00;1.80;;;;;;;;;;5048255;28;20202;-78
2023/11/19 08:21:13;;;;;;;2.10;1.63;;;;;;;;;;5049787;28;20284;-76
2023/11/19 08:23:40;;;;;;;1.60;1.50;;;;;;;;;;5049655;28;20313;-77
2023/11/19 08:26:07;;;;;;;1.83;1.73;;;;;;;;;;5036652;28;20210;-75
2023/11/19 08:28:35;;;;;;;1.90;1.80;;;;;;;;;;5049780;28;20229;-76
2023/11/19 08:31:04;;;;;;;2.07;1.97;;;;;;;;;;5050760;28;20276;-75
2023/11/19 08:33:31;;;;;;;2.83;2.43;;;;;;;;;;5053217;28;20256;-74
2023/11/19 08:35:58;;;;;;;2.20;2.00;;;;;;;;;;5052841;28;20298;-75
2023/11/19 08:38:25;;;;;;;2.70;2.00;;;;;;;;;;5052813;28;20209;-76
2023/11/19 08:40:52;;;;;;;1.57;1.47;;;;;;;;;;5053074;28;20206;-76
2023/11/19 08:43:18;;;;;;;1.70;1.60;;;;;;;;;;5053727;28;20217;-76
2023/11/19 08:45:45;;;;;;;1.60;1.50;;;;;;;;;;5053240;28;20319;-74
2023/11/19 08:48:13;;;;;;;2.23;2.10;;;;;;;;;;5053082;28;20228;-76
2023/11/19 08:50:40;;;;;;;2.00;1.90;;;;;;;;;;5052877;28;20209;-76
2023/11/19 08:53:07;;;;;;;1.53;1.43;;;;;;;;;;5053312;28;20236;-75
2023/11/19 08:55:34;;;;;;;1.70;1.60;;;;;;;;;;5052418;28;20225;-76
2023/11/19 08:58:02;;;;;;;2.20;2.00;;;;;;;;;;5052387;28;20206;-76
2023/11/19 09:00:29;;;;;;;2.13;1.93;;;;;;;;;;5053003;28;20565;-75
2023/11/19 09:02:58;;;;;;;2.20;1.73;;;;;;;;;;5052587;28;20202;-76
2023/11/19 09:05:27;;;;;;;1.73;1.63;;;;;;;;;;5052822;28;20209;-76
2023/11/19 09:07:54;;;;;;;1.50;1.40;;;;;;;;;;5052771;28;20234;-76
2023/11/19 09:10:21;;;;;;;1.80;1.70;;;;;;;;;;5052878;28;20198;-76
2023/11/19 09:12:48;;;;;;;1.43;1.40;;;;;;;;;;5052348;28;20198;-76
2023/11/19 09:15:14;;;;;;;2.63;1.70;;;;;;;;;;5051475;28;20205;-76
2023/11/19 09:17:41;;;;;;;2.07;1.87;;;;;;;;;;5052313;28;20213;-76
2023/11/19 09:20:11;;;;;;;1.70;1.60;;;;;;;;;;5052430;28;20264;-76
2023/11/19 09:22:40;;;;;;;1.90;1.80;;;;;;;;;;5052469;28;20658;-76
2023/11/19 09:25:07;;;;;;;1.53;1.43;;;;;;;;;;5052343;28;20202;-76
2023/11/19 09:27:34;;;;;;;2.27;1.57;;;;;;;;;;5052062;28;20238;-76
2023/11/19 09:30:03;;;;;;;2.30;1.90;;;;;;;;;;5052183;28;20209;-75
2023/11/19 09:32:30;;;;;;;2.00;1.80;;;;;;;;;;5052006;28;20190;-76
2023/11/19 09:34:57;;;;;;;1.97;1.80;;;;;;;;;;5052505;28;20222;-76
2023/11/19 09:37:24;;;;;;;1.60;1.50;;;;;;;;;;5052180;28;20198;-77
2023/11/19 09:39:53;;;;;;;2.77;2.50;;;;;;;;;;5051809;28;20669;-75
2023/11/19 09:42:20;;;;;;;4.43;3.70;;;;;;;;;;5051995;28;20695;-76
2023/11/19 09:44:48;;;;;;;1.93;1.83;;;;;;;;;;5052356;28;20264;-76
2023/11/19 09:47:15;;;;;;;35.57;21.13;;;;;;;;;;5051475;28;20226;-76
2023/11/19 09:49:42;;;;;;;100.70;57.93;;;;;;;;;;5051646;28;20213;-76
2023/11/19 09:52:09;;;;;;;3.53;3.23;;;;;;;;;;5049980;28;20208;-77
2023/11/19 09:54:36;;;;;;;1.73;1.63;;;;;;;;;;5050215;28;20202;-76
2023/11/19 09:57:05;;;;;;;1.60;1.53;;;;;;;;;;5050488;28;20201;-76
2023/11/19 09:59:32;;;;;;;1.70;1.30;;;;;;;;;;5051270;28;20668;-75
2023/11/19 10:02:00;;;;;;;1.63;1.53;;;;;;;;;;5051460;28;20628;-75
2023/11/19 10:04:30;;;;;;;1.20;1.17;;;;;;;;;;5051893;28;20216;-76
2023/11/19 10:06:57;;;;;;;1.53;1.43;;;;;;;;;;5051362;28;20209;-76
2023/11/19 10:09:24;;;;;;;1.93;1.77;;;;;;;;;;5051145;28;20222;-76
2023/11/19 10:11:51;;;;;;;1.30;1.30;;;;;;;;;;5051967;28;20202;-76
2023/11/19 10:14:20;;;;;;;1.70;1.60;;;;;;;;;;5051248;28;20631;-76
2023/11/19 10:16:47;;;;;;;2.40;1.97;;;;;;;;;;5051907;28;20224;-75
2023/11/19 10:19:20;;;;;;;2.13;1.53;;;;;;;;;;5051272;28;20201;-76
2023/11/19 10:21:47;;;;;;;1.83;1.73;;;;;;;;;;5051374;28;20237;-75
2023/11/19 10:24:14;;;;;;;2.03;1.70;;;;;;;;;;5050755;28;20198;-76
2023/11/19 10:26:41;;;;;;;1.63;1.53;;;;;;;;;;5051503;28;20197;-76
2023/11/19 10:29:08;;;;;;;1.80;1.70;;;;;;;;;;5050948;28;20224;-76
2023/11/19 10:31:39;;;;;;;2.10;2.00;;;;;;;;;;5051303;28;20198;-76
2023/11/19 10:34:25;;;;;;;1.53;1.43;;;;;;;;;;5050927;28;20198;-76
2023/11/19 10:36:52;;;;;;;1.77;1.67;;;;;;;;;;5051516;28;20222;-76
2023/11/19 10:39:20;;;;;;;1.93;1.83;;;;;;;;;;5051185;28;20216;-75
2023/11/19 10:41:47;;;;;;;2.57;2.27;;;;;;;;;;5051179;28;20237;-76
2023/11/19 10:44:33;;;;;;;1.70;1.60;;;;;;;;;;5050749;28;20198;-76
2023/11/19 10:47:01;;;;;;;1.77;1.67;;;;;;;;;;5050514;28;20219;-76
2023/11/19 10:49:28;;;;;;;2.50;2.00;;;;;;;;;;5050543;28;20236;-76
2023/11/19 10:51:57;;;;;;;1.57;1.47;;;;;;;;;;5050269;28;20202;-77
2023/11/19 10:54:24;;;;;;;2.07;1.83;;;;;;;;;;5047749;28;20201;-76
2023/11/19 10:56:56;;;;;;;1.63;1.53;;;;;;;;;;5044983;28;20214;-76
2023/11/19 10:59:23;;;;;;;1.67;1.57;;;;;;;;;;5047151;28;20260;-76
2023/11/19 11:01:53;;;;;;;1.60;1.50;;;;;;;;;;5044809;28;20739;-76
2023/11/19 11:04:24;;;;;;;2.20;2.00;;;;;;;;;;5048180;28;20672;-75
2023/11/19 11:06:52;;;;;;;2.10;1.67;;;;;;;;;;5047620;28;20202;-76
2023/11/19 11:09:19;;;;;;;1.70;1.23;;;;;;;;;;5038081;28;20222;-76
2023/11/19 11:11:47;;;;;;;1.50;1.40;;;;;;;;;;5047560;28;20201;-76
2023/11/19 11:14:15;;;;;;;2.07;1.93;;;;;;;;;;5050388;28;20202;-76
2023/11/19 11:16:43;;;;;;;1.70;1.60;;;;;;;;;;5050837;28;20279;-76
2023/11/19 11:19:10;;;;;;;1.63;1.53;;;;;;;;;;5050120;28;20201;-76
2023/11/19 11:21:44;;;;;;;3.40;1.53;;;;;;;;;;5050272;28;20197;-76
2023/11/19 11:24:21;;;;;;;1.73;1.63;;;;;;;;;;5050374;28;20213;-76
2023/11/19 11:27:13;;;;;;;2.00;1.90;;;;;;;;;;5026916;28;20212;-76
2023/11/19 11:29:44;;;;;;;1.50;1.40;;;;;;;;;;5049875;28;20232;-76
2023/11/19 11:32:21;;;;;;;1.83;1.50;;;;;;;;;;5050277;28;20202;-76
2023/11/19 11:35:11;;;;;;;2.63;2.30;;;;;;;;;;5050064;28;20205;-76
2023/11/19 11:37:47;;;;;;;5.93;4.03;;;;;;;;;;5048236;28;20201;-75
2023/11/19 11:40:15;;;;;;;3.50;3.20;;;;;;;;;;5050140;28;20197;-76
2023/11/19 11:42:42;;;;;;;1.63;1.53;;;;;;;;;;5024740;28;20676;-76
2023/11/19 11:45:10;;;;;;;3.23;2.00;;;;;;;;;;5049596;28;20684;-76
2023/11/19 11:48:12;;;;;;;2.20;1.83;;;;;;;;;;5050462;28;20585;-76
2023/11/19 11:50:52;;;;;;;2.10;1.90;;;;;;;;;;5049988;28;20201;-76
2023/11/19 11:53:24;;;;;;;1.97;1.80;;;;;;;;;;5049602;28;20696;-76
2023/11/19 11:55:58;;;;;;;6.10;3.53;;;;;;;;;;5050381;28;20213;-75
2023/11/19 11:58:39;;;;;;;3.53;3.13;;;;;;;;;;5050035;28;20691;-76
2023/11/19 12:01:09;;;;;;;1.90;1.80;;;;;;;;;;5050139;28;20204;-75
2023/11/19 12:03:36;;;;;;;1.50;1.40;;;;;;;;;;5049672;28;20695;-76
2023/11/19 12:06:03;;;;;;;2.97;1.97;;;;;;;;;;5051030;28;20703;-76
2023/11/19 12:08:31;;;;;;;2.70;2.20;;;;;;;;;;5052759;28;20726;-76
2023/11/19 12:10:59;;;;;;;3.10;1.97;;;;;;;;;;5053972;28;20205;-76
2023/11/19 12:13:45;;;;;;;1.40;1.30;;;;;;;;;;5054010;28;20197;-76
2023/11/19 12:16:12;;;;;;;2.33;1.60;;;;;;;;;;5053145;28;20209;-76
2023/11/19 12:18:41;;;;;;;3.57;2.10;;;;;;;;;;5053996;28;20209;-76
2023/11/19 12:21:10;;;;;;;3.23;1.77;;;;;;;;;;5053612;28;20214;-76
2023/11/19 12:23:45;;;;;;;1.93;1.60;;;;;;;;;;5053339;28;20198;-76
2023/11/19 12:26:22;;;;;;;1.30;1.20;;;;;;;;;;5051723;28;20290;-76
2023/11/19 12:28:58;;;;;;;1.67;1.57;;;;;;;;;;5053564;28;20240;-75
2023/11/19 12:31:25;;;;;;;1.50;1.40;;;;;;;;;;5053830;28;20206;-75
2023/11/19 12:33:52;;;;;;;2.20;1.47;;;;;;;;;;5053152;28;20206;-76
2023/11/19 12:36:19;;;;;;;1.73;1.57;;;;;;;;;;5053765;28;20682;-76
2023/11/19 12:38:48;;;;;;;1.10;1.10;;;;;;;;;;5052884;28;20205;-76
2023/11/19 12:41:17;;;;;;;1.60;1.50;;;;;;;;;;5053169;28;20198;-76
2023/11/19 12:43:44;;;;;;;1.83;1.23;;;;;;;;;;5053400;28;20210;-76
2023/11/19 12:46:21;;;;;;;1.50;1.40;;;;;;;;;;5053171;28;20206;-76
2023/11/19 12:48:48;;;;;;;1.77;1.47;;;;;;;;;;5053023;28;20221;-75
2023/11/19 12:51:15;;;;;;;1.40;1.30;;;;;;;;;;5053830;28;20213;-76
2023/11/19 12:53:53;;;;;;;1.43;1.33;;;;;;;;;;5048210;28;20210;-76
2023/11/19 12:56:21;;;;;;;1.87;1.70;;;;;;;;;;5044747;28;20210;-76
2023/11/19 12:58:47;;;;;;;3.50;2.60;;;;;;;;;;5040878;28;20201;-76
2023/11/19 13:01:17;;;;;;;1.70;1.40;;;;;;;;;;5052947;28;20669;-76
2023/11/19 13:03:44;;;;;;;3.27;2.50;;;;;;;;;;5052108;28;20207;-75
2023/11/19 13:06:12;;;;;;;1.23;1.20;;;;;;;;;;5026994;28;20200;-76
2023/11/19 13:08:40;;;;;;;1.13;1.13;;;;;;;;;;5052118;28;20234;-77
2023/11/19 13:11:09;;;;;;;1.37;1.27;;;;;;;;;;5045673;28;20207;-76
2023/11/19 13:13:57;;;;;;;1.40;1.30;;;;;;;;;;5051403;28;20198;-76
2023/11/19 13:16:24;;;;;;;1.77;1.67;;;;;;;;;;5052158;28;20202;-76
2023/11/19 13:18:52;;;;;;;2.03;1.83;;;;;;;;;;5052711;28;20215;-75
2023/11/19 13:21:19;;;;;;;1.70;1.60;;;;;;;;;;5052207;28;20648;-76
2023/11/19 13:23:46;;;;;;;1.63;1.53;;;;;;;;;;5052710;28;20205;-75
2023/11/19 13:26:14;;;;;;;2.30;2.10;;;;;;;;;;5052284;28;20198;-75
2023/11/19 13:28:41;;;;;;;1.93;1.60;;;;;;;;;;5052355;28;20228;-76
2023/11/19 13:31:08;;;;;;;2.17;1.87;;;;;;;;;;5052395;28;20691;-76
2023/11/19 13:33:35;;;;;;;2.40;2.07;;;;;;;;;;5052849;28;20213;-76
2023/11/19 13:36:05;;;;;;;1.60;1.50;;;;;;;;;;5052318;28;20230;-76
2023/11/19 13:38:32;;;;;;;2.67;2.33;;;;;;;;;;5052525;28;20600;-75
2023/11/19 13:40:59;;;;;;;2.43;1.97;;;;;;;;;;5052338;28;20584;-76
2023/11/19 13:43:28;;;;;;;2.57;2.37;;;;;;;;;;5052457;28;20202;-76
2023/11/19 13:45:55;;;;;;;2.93;2.63;;;;;;;;;;5052555;28;20210;-75
2023/11/19 13:48:22;;;;;;;3.03;2.73;;;;;;;;;;5051457;28;20206;-76
2023/11/19 13:50:49;;;;;;;4.27;2.47;;;;;;;;;;5052101;28;20202;-75
2023/11/19 13:53:16;;;;;;;2.50;2.30;;;;;;;;;;5050914;28;20206;-78
2023/11/19 13:55:43;;;;;;;1.47;1.37;;;;;;;;;;5026038;28;20198;-76
2023/11/19 13:58:10;;;;;;;2.23;2.03;;;;;;;;;;5051387;28;20204;-77
2023/11/19 14:00:42;;;;;;;2.73;2.53;;;;;;;;;;5051663;28;20595;-76
2023/11/19 14:03:10;;;;;;;3.00;2.60;;;;;;;;;;5051690;28;20672;-76
2023/11/19 14:05:41;;;;;;;2.53;2.13;;;;;;;;;;5052134;28;20198;-76
2023/11/19 14:08:11;;;;;;;2.20;2.00;;;;;;;;;;5051574;28;20202;-76
2023/11/19 14:10:40;;;;;;;3.20;2.90;;;;;;;;;;5051773;28;20229;-76
2023/11/19 14:13:07;;;;;;;4.03;2.43;;;;;;;;;;5051415;28;20198;-76
2023/11/19 14:15:35;;;;;;;2.30;2.10;;;;;;;;;;5051771;28;20198;-76
2023/11/19 14:18:03;;;;;;;2.87;2.10;;;;;;;;;;5051515;28;20251;-76
2023/11/19 14:20:30;;;;;;;2.10;1.93;;;;;;;;;;5051564;28;20229;-76
2023/11/19 14:22:57;;;;;;;2.90;2.07;;;;;;;;;;5051245;28;20198;-75
2023/11/19 14:25:24;;;;;;;6.90;2.73;;;;;;;;;;5051482;28;20273;-76
2023/11/19 14:27:51;;;;;;;4.63;3.10;;;;;;;;;;5037851;28;20292;-76
2023/11/19 14:30:18;;;;;;;4.37;2.63;;;;;;;;;;5050881;28;20320;-76
2023/11/19 14:32:45;;;;;;;2.33;2.13;;;;;;;;;;5051173;28;20584;-77
2023/11/19 14:35:14;;;;;;;2.80;2.10;;;;;;;;;;5051187;28;20747;-76
2023/11/19 14:37:40;;;;;;;2.77;2.57;;;;;;;;;;5051116;28;20684;-76
2023/11/19 14:40:11;;;;;;;5.87;3.10;;;;;;;;;;5051028;28;20208;-76
2023/11/19 14:42:40;;;;;;;4.00;3.63;;;;;;;;;;5051203;28;20202;-76
2023/11/19 14:45:11;;;;;;;27.70;14.00;;;;;;;;;;5050566;28;20660;-76
2023/11/19 14:47:38;;;;;;;50.73;30.27;;;;;;;;;;5051447;28;20206;-76
2023/11/19 14:50:09;;;;;;;16.07;11.53;;;;;;;;;;5050503;28;20708;-76